Time;durP1;ratioP1;P1;durP2;ratioP2;P2;SDS_P1;SDS_P2;PMS_P1;PMS_P2;Temp;Humidity;BMP_temperature;BMP_pressure;BME280_temperature;BME280_humidity;BME280_pressure;Samples;Min_cycle;Max_cycle;Signal;HPM_P1;HPM_P2
2022/10/04 04:00:37;;;;;;;4.90;4.38;;;;;;;;;;5975316;22;20514;-79
2022/10/04 04:03:06;;;;;;;4.22;3.92;;;;;;;;;;5029445;28;20502;-80
2022/10/04 04:05:39;;;;;;;4.80;4.40;;;;;;;;;;5031001;28;20378;-80
2022/10/04 04:08:07;;;;;;;4.83;4.37;;;;;;;;;;5035096;28;20393;-80
2022/10/04 04:10:34;;;;;;;4.57;4.03;;;;;;;;;;5034859;28;20402;-80
2022/10/04 04:13:00;;;;;;;5.05;4.55;;;;;;;;;;5015436;28;20889;-80
2022/10/04 04:15:31;;;;;;;5.18;4.68;;;;;;;;;;4997693;28;20415;-80
2022/10/04 04:18:00;;;;;;;4.77;4.30;;;;;;;;;;5001080;28;20433;-80
2022/10/04 04:20:29;;;;;;;4.53;4.13;;;;;;;;;;5010929;28;20385;-80
2022/10/04 04:23:11;;;;;;;4.30;3.88;;;;;;;;;;4989502;28;20441;-80
2022/10/04 04:25:38;;;;;;;5.05;4.22;;;;;;;;;;5013732;28;20377;-80
2022/10/04 04:28:13;;;;;;;4.68;4.28;;;;;;;;;;5013172;28;20385;-79
2022/10/04 04:30:43;;;;;;;4.70;4.17;;;;;;;;;;5013119;28;20383;-80
2022/10/04 04:33:12;;;;;;;4.43;4.03;;;;;;;;;;5013323;28;20397;-79
2022/10/04 04:35:38;;;;;;;4.35;3.97;;;;;;;;;;5013337;28;20389;-79
2022/10/04 04:38:25;;;;;;;4.40;4.00;;;;;;;;;;5012969;28;20439;-79
2022/10/04 04:40:56;;;;;;;6.55;3.75;;;;;;;;;;5013222;28;20463;-79
2022/10/04 04:43:25;;;;;;;4.22;3.80;;;;;;;;;;5017059;28;20906;-81
2022/10/04 04:45:51;;;;;;;4.30;3.90;;;;;;;;;;5014452;28;20395;-81
2022/10/04 04:48:18;;;;;;;4.82;3.80;;;;;;;;;;5014826;28;20381;-81
2022/10/04 04:50:54;;;;;;;4.30;3.90;;;;;;;;;;5014287;28;20389;-81
2022/10/04 04:53:26;;;;;;;4.50;4.10;;;;;;;;;;5014408;28;20464;-81
2022/10/04 04:55:59;;;;;;;4.90;4.45;;;;;;;;;;5014252;28;20397;-81
2022/10/04 04:58:26;;;;;;;5.72;4.50;;;;;;;;;;5013045;28;20389;-79
2022/10/04 05:00:57;;;;;;;4.80;4.33;;;;;;;;;;5014102;28;20401;-80
2022/10/04 05:03:23;;;;;;;4.38;3.92;;;;;;;;;;5014201;28;20456;-80
2022/10/04 05:05:50;;;;;;;4.28;3.60;;;;;;;;;;5013560;28;20475;-80
2022/10/04 05:08:26;;;;;;;4.10;3.70;;;;;;;;;;4995015;28;20794;-80
2022/10/04 05:11:07;;;;;;;5.22;3.88;;;;;;;;;;5013939;28;20369;-80
2022/10/04 05:13:45;;;;;;;3.95;3.60;;;;;;;;;;5007680;28;20432;-80
2022/10/04 05:16:18;;;;;;;4.20;3.90;;;;;;;;;;5013452;28;20870;-80
2022/10/04 05:18:45;;;;;;;4.32;3.90;;;;;;;;;;5012764;28;20387;-80
2022/10/04 05:21:11;;;;;;;4.93;4.43;;;;;;;;;;5013119;28;20858;-80
2022/10/04 05:23:38;;;;;;;5.93;4.40;;;;;;;;;;5014103;28;20412;-79
2022/10/04 05:26:05;;;;;;;4.80;4.40;;;;;;;;;;5013416;28;20407;-80
2022/10/04 05:28:32;;;;;;;6.75;6.15;;;;;;;;;;5013248;28;20393;-80
2022/10/04 05:31:16;;;;;;;8.25;7.38;;;;;;;;;;5013166;28;20873;-79
2022/10/04 05:33:47;;;;;;;7.65;6.93;;;;;;;;;;5013187;28;20408;-82
2022/10/04 05:36:28;;;;;;;7.93;7.22;;;;;;;;;;5013020;28;20404;-79
2022/10/04 05:39:05;;;;;;;5.55;5.05;;;;;;;;;;4992823;28;20393;-79
2022/10/04 05:41:37;;;;;;;7.20;3.67;;;;;;;;;;5011422;28;20391;-81
2022/10/04 05:44:17;;;;;;;8.50;3.90;;;;;;;;;;5012881;28;20405;-80
2022/10/04 05:46:43;;;;;;;5.45;3.53;;;;;;;;;;4995846;28;20821;-81
2022/10/04 05:49:13;;;;;;;4.50;3.45;;;;;;;;;;5010927;28;20388;-81
2022/10/04 05:51:55;;;;;;;6.28;3.88;;;;;;;;;;5012802;28;20426;-81
2022/10/04 05:54:23;;;;;;;5.63;3.92;;;;;;;;;;5013098;28;20420;-81
2022/10/04 05:56:55;;;;;;;7.30;4.35;;;;;;;;;;5013391;28;20393;-81
2022/10/04 05:59:21;;;;;;;6.25;3.85;;;;;;;;;;5007143;28;20825;-81
2022/10/04 06:01:47;;;;;;;6.07;3.63;;;;;;;;;;5009105;28;20436;-81
2022/10/04 06:04:13;;;;;;;4.60;3.70;;;;;;;;;;4998242;28;20993;-81
2022/10/04 06:06:58;;;;;;;4.30;3.55;;;;;;;;;;5013312;28;20392;-81
2022/10/04 06:09:45;;;;;;;4.47;3.75;;;;;;;;;;5013157;28;20495;-81
2022/10/04 06:12:26;;;;;;;7.90;4.43;;;;;;;;;;5010485;28;20472;-81
2022/10/04 06:15:01;;;;;;;4.50;3.75;;;;;;;;;;5011273;28;20475;-79
2022/10/04 06:17:32;;;;;;;4.75;4.20;;;;;;;;;;5000579;28;21001;-79
2022/10/04 06:20:11;;;;;;;4.78;4.18;;;;;;;;;;5012335;28;20396;-84
2022/10/04 06:22:44;;;;;;;4.25;3.85;;;;;;;;;;5012662;28;20388;-82
2022/10/04 06:25:14;;;;;;;7.70;3.92;;;;;;;;;;4995097;28;20774;-83
2022/10/04 06:27:58;;;;;;;5.00;3.90;;;;;;;;;;5016238;28;20458;-82
2022/10/04 06:30:32;;;;;;;5.70;4.30;;;;;;;;;;5012585;28;20380;-83
2022/10/04 06:33:18;;;;;;;5.43;4.15;;;;;;;;;;5012732;28;20384;-83
2022/10/04 06:36:13;;;;;;;4.20;3.80;;;;;;;;;;5012812;28;20898;-83
2022/10/04 06:38:51;;;;;;;4.80;3.50;;;;;;;;;;4995943;28;20403;-82
2022/10/04 06:41:20;;;;;;;4.13;3.73;;;;;;;;;;4995071;28;20400;-82
2022/10/04 06:43:58;;;;;;;4.50;4.10;;;;;;;;;;5012402;28;20409;-82
2022/10/04 06:46:27;;;;;;;4.90;4.40;;;;;;;;;;5012478;28;20426;-82
2022/10/04 06:49:16;;;;;;;8.93;4.70;;;;;;;;;;5014698;28;20933;-82
2022/10/04 06:52:10;;;;;;;5.60;4.43;;;;;;;;;;5002713;28;20432;-82
2022/10/04 06:54:48;;;;;;;5.63;4.28;;;;;;;;;;5012442;28;20476;-82
2022/10/04 06:57:21;;;;;;;5.45;4.22;;;;;;;;;;5012313;28;20388;-83
2022/10/04 06:59:49;;;;;;;4.75;4.35;;;;;;;;;;5012341;28;20431;-82
2022/10/04 07:02:21;;;;;;;5.38;4.22;;;;;;;;;;5012063;28;20409;-82
2022/10/04 07:05:11;;;;;;;4.82;4.40;;;;;;;;;;5012212;28;20412;-83
2022/10/04 07:07:40;;;;;;;8.57;4.60;;;;;;;;;;5012560;28;20377;-83
2022/10/04 07:10:23;;;;;;;5.80;4.45;;;;;;;;;;5012172;28;20381;-83
2022/10/04 07:12:53;;;;;;;5.07;4.20;;;;;;;;;;5012288;28;20381;-82
2022/10/04 07:15:22;;;;;;;7.70;4.38;;;;;;;;;;5012406;28;20472;-82
2022/10/04 07:17:49;;;;;;;4.97;3.97;;;;;;;;;;5011158;28;20424;-79
2022/10/04 07:20:22;;;;;;;4.53;4.00;;;;;;;;;;5012202;28;20392;-82
2022/10/04 07:22:53;;;;;;;5.10;4.00;;;;;;;;;;5012315;28;20392;-83
2022/10/04 07:25:20;;;;;;;4.30;3.90;;;;;;;;;;5012246;28;20401;-83
2022/10/04 07:27:46;;;;;;;4.60;4.00;;;;;;;;;;5012083;28;20404;-83
2022/10/04 07:30:16;;;;;;;4.72;3.70;;;;;;;;;;5012188;28;20397;-83
2022/10/04 07:32:47;;;;;;;4.60;3.70;;;;;;;;;;5010802;28;20770;-83
2022/10/04 07:35:19;;;;;;;5.35;3.63;;;;;;;;;;5009786;28;20874;-84
2022/10/04 07:37:48;;;;;;;5.45;3.47;;;;;;;;;;5014958;28;20420;-84
2022/10/04 07:40:25;;;;;;;7.70;4.05;;;;;;;;;;5013897;28;20385;-84
2022/10/04 07:42:53;;;;;;;4.93;4.13;;;;;;;;;;5015416;28;20890;-84
2022/10/04 07:45:28;;;;;;;4.37;3.77;;;;;;;;;;5015720;28;20442;-84
2022/10/04 07:48:13;;;;;;;9.40;4.50;;;;;;;;;;5014669;28;20467;-80
2022/10/04 07:50:43;;;;;;;7.50;4.67;;;;;;;;;;4997913;28;20393;-80
2022/10/04 07:53:25;;;;;;;7.35;4.70;;;;;;;;;;5015293;28;20486;-80
2022/10/04 07:56:09;;;;;;;9.68;5.32;;;;;;;;;;5015693;28;20384;-80
2022/10/04 07:58:45;;;;;;;6.28;5.60;;;;;;;;;;5014558;28;20377;-81
2022/10/04 08:01:26;;;;;;;6.97;6.28;;;;;;;;;;5015222;28;20393;-81
2022/10/04 08:03:56;;;;;;;8.00;7.20;;;;;;;;;;5014990;28;20409;-81
2022/10/04 08:06:34;;;;;;;8.85;7.03;;;;;;;;;;5015331;28;20392;-81
2022/10/04 08:09:19;;;;;;;7.97;6.88;;;;;;;;;;5015234;28;20388;-81
2022/10/04 08:12:04;;;;;;;8.35;7.50;;;;;;;;;;5014044;28;20385;-82
2022/10/04 08:14:31;;;;;;;8.20;7.00;;;;;;;;;;5014714;28;20801;-83
2022/10/04 08:17:27;;;;;;;15.85;9.18;;;;;;;;;;5015082;28;20377;-82
2022/10/04 08:20:28;;;;;;;8.65;7.07;;;;;;;;;;4998652;28;20447;-83
2022/10/04 08:23:09;;;;;;;9.60;7.25;;;;;;;;;;4934617;29;20400;-83
2022/10/04 08:25:38;;;;;;;11.00;8.82;;;;;;;;;;5007289;28;20397;-83
2022/10/04 08:31:08;;;;;;;8.55;7.65;;;;;;;;;;5014601;28;20369;-82
2022/10/04 08:33:46;;;;;;;8.35;6.88;;;;;;;;;;5014533;28;20447;-81
2022/10/04 08:36:15;;;;;;;8.25;7.40;;;;;;;;;;5013806;28;20439;-82
2022/10/04 08:38:46;;;;;;;7.90;6.87;;;;;;;;;;5012952;28;20381;-82
2022/10/04 08:41:30;;;;;;;12.20;8.23;;;;;;;;;;5013056;28;20416;-82
2022/10/04 08:44:12;;;;;;;10.77;8.90;;;;;;;;;;5013680;28;20893;-81
2022/10/04 08:46:58;;;;;;;10.47;9.37;;;;;;;;;;5012142;28;20450;-81
2022/10/04 08:49:42;;;;;;;11.43;9.10;;;;;;;;;;5012904;28;20851;-81
2022/10/04 08:52:23;;;;;;;14.70;10.15;;;;;;;;;;5010655;28;20468;-82
2022/10/04 08:54:59;;;;;;;16.30;11.13;;;;;;;;;;5010904;28;20419;-81
2022/10/04 08:57:31;;;;;;;25.77;12.27;;;;;;;;;;5012387;28;20384;-81
2022/10/04 09:00:24;;;;;;;16.73;12.73;;;;;;;;;;5007995;28;20386;-81
2022/10/04 09:03:03;;;;;;;14.93;10.95;;;;;;;;;;4993075;28;20767;-82
2022/10/04 09:05:44;;;;;;;12.82;9.98;;;;;;;;;;5004809;28;20394;-82
2022/10/04 09:08:29;;;;;;;14.55;9.82;;;;;;;;;;5014108;28;20793;-81
2022/10/04 09:11:13;;;;;;;10.43;9.13;;;;;;;;;;5013944;28;20395;-82
2022/10/04 09:13:48;;;;;;;18.65;12.45;;;;;;;;;;5014039;28;20412;-81
2022/10/04 09:16:16;;;;;;;27.40;13.35;;;;;;;;;;5014116;28;20377;-82
2022/10/04 09:18:48;;;;;;;25.65;14.35;;;;;;;;;;5013994;28;20460;-81
2022/10/04 09:21:17;;;;;;;19.95;12.30;;;;;;;;;;5013854;28;20873;-82
2022/10/04 09:24:09;;;;;;;17.20;11.88;;;;;;;;;;5005819;28;20422;-82
2022/10/04 09:26:38;;;;;;;15.97;11.47;;;;;;;;;;4999640;28;20391;-82
2022/10/04 09:29:23;;;;;;;17.42;11.38;;;;;;;;;;5003573;28;20421;-82
2022/10/04 09:31:58;;;;;;;12.20;10.10;;;;;;;;;;5008090;28;20381;-82
2022/10/04 09:34:30;;;;;;;14.65;10.50;;;;;;;;;;5013639;28;20384;-81
2022/10/04 09:37:05;;;;;;;16.83;11.02;;;;;;;;;;5003466;28;20826;-82
2022/10/04 09:39:39;;;;;;;22.83;11.98;;;;;;;;;;5013507;28;20381;-82
2022/10/04 09:42:31;;;;;;;12.85;10.80;;;;;;;;;;5011242;28;20901;-81
2022/10/04 09:44:57;;;;;;;11.73;10.07;;;;;;;;;;5012432;28;20408;-82
2022/10/04 09:47:23;;;;;;;10.07;9.07;;;;;;;;;;5013512;28;20841;-82
2022/10/04 09:49:55;;;;;;;14.15;9.50;;;;;;;;;;5013398;28;20376;-82
2022/10/04 09:52:44;;;;;;;23.52;10.15;;;;;;;;;;5008633;28;20382;-82
2022/10/04 09:55:22;;;;;;;12.05;9.52;;;;;;;;;;4977972;28;20443;-82
2022/10/04 09:58:07;;;;;;;13.35;10.48;;;;;;;;;;5010180;28;20941;-82
2022/10/04 10:00:46;;;;;;;17.00;11.05;;;;;;;;;;5013072;28;20443;-82
2022/10/04 10:03:25;;;;;;;14.95;11.20;;;;;;;;;;5013133;28;20397;-82
2022/10/04 10:05:56;;;;;;;16.90;11.30;;;;;;;;;;5013179;28;20388;-82
2022/10/04 10:08:31;;;;;;;14.40;11.55;;;;;;;;;;5013019;28;20409;-81
2022/10/04 10:14:03;;;;;;;13.30;11.57;;;;;;;;;;5011067;28;20454;-81
2022/10/04 10:16:31;;;;;;;12.80;11.40;;;;;;;;;;5013039;28;20738;-81
2022/10/04 10:18:58;;;;;;;12.77;11.50;;;;;;;;;;5012868;28;20384;-81
2022/10/04 10:21:32;;;;;;;13.65;11.13;;;;;;;;;;5005189;28;20423;-81
2022/10/04 10:24:24;;;;;;;12.25;10.60;;;;;;;;;;5013089;28;20496;-81
2022/10/04 10:27:01;;;;;;;13.02;11.20;;;;;;;;;;4983329;28;20392;-81
2022/10/04 10:29:29;;;;;;;12.32;11.02;;;;;;;;;;5012814;28;20738;-81
2022/10/04 10:31:58;;;;;;;13.95;11.73;;;;;;;;;;5012691;28;20432;-81
2022/10/04 10:34:27;;;;;;;12.03;10.83;;;;;;;;;;5012636;28;20477;-81
2022/10/04 10:37:16;;;;;;;11.57;10.43;;;;;;;;;;5006192;28;20748;-81
2022/10/04 10:39:42;;;;;;;23.60;13.20;;;;;;;;;;5008214;28;20475;-81
2022/10/04 10:42:26;;;;;;;11.35;10.25;;;;;;;;;;5014989;28;20381;-81
2022/10/04 10:45:08;;;;;;;12.00;10.60;;;;;;;;;;5012395;28;20462;-81
2022/10/04 10:47:43;;;;;;;11.75;10.55;;;;;;;;;;4998046;28;20441;-82
2022/10/04 10:50:18;;;;;;;11.27;10.05;;;;;;;;;;4994458;28;20420;-82
2022/10/04 10:52:44;;;;;;;13.00;9.60;;;;;;;;;;5005570;28;20500;-81
2022/10/04 10:55:25;;;;;;;9.93;9.02;;;;;;;;;;5000237;28;20417;-81
2022/10/04 10:58:15;;;;;;;11.80;9.30;;;;;;;;;;4992418;28;20876;-81
2022/10/04 11:01:11;;;;;;;10.38;9.25;;;;;;;;;;4989134;28;20866;-82
2022/10/04 11:03:49;;;;;;;12.87;9.50;;;;;;;;;;4998910;28;20462;-82
2022/10/04 11:06:18;;;;;;;9.25;8.35;;;;;;;;;;5005518;28;20734;-82
2022/10/04 11:09:03;;;;;;;23.13;10.23;;;;;;;;;;5003992;28;20908;-83
2022/10/04 11:11:29;;;;;;;10.88;9.77;;;;;;;;;;5006642;28;20393;-82
2022/10/04 11:14:01;;;;;;;10.90;9.83;;;;;;;;;;5016379;28;20833;-82
2022/10/04 11:16:46;;;;;;;10.77;9.77;;;;;;;;;;5016518;28;20392;-82
2022/10/04 11:19:15;;;;;;;13.35;9.07;;;;;;;;;;5016247;28;20420;-81
2022/10/04 11:22:05;;;;;;;10.98;9.75;;;;;;;;;;5016114;28;20385;-82
2022/10/04 11:24:50;;;;;;;11.13;9.98;;;;;;;;;;5016093;28;20409;-82
2022/10/04 11:27:27;;;;;;;10.88;9.80;;;;;;;;;;4998387;28;20752;-82
2022/10/04 11:29:54;;;;;;;10.18;9.23;;;;;;;;;;5016032;28;20384;-82
2022/10/04 11:32:39;;;;;;;10.70;9.70;;;;;;;;;;5015979;28;20377;-82
2022/10/04 11:35:11;;;;;;;11.35;9.27;;;;;;;;;;5015929;28;20743;-82
2022/10/04 11:37:49;;;;;;;9.27;8.40;;;;;;;;;;5015871;28;20396;-82
2022/10/04 11:40:22;;;;;;;10.48;9.48;;;;;;;;;;5015796;28;20431;-82
2022/10/04 11:42:51;;;;;;;11.85;10.75;;;;;;;;;;5015675;28;20385;-82
2022/10/04 11:45:18;;;;;;;11.00;10.00;;;;;;;;;;5015678;28;20441;-82
2022/10/04 11:48:08;;;;;;;11.65;10.55;;;;;;;;;;5015758;28;20380;-82
2022/10/04 11:50:46;;;;;;;10.80;9.70;;;;;;;;;;5015678;28;20380;-82
2022/10/04 11:53:31;;;;;;;10.82;9.93;;;;;;;;;;5015539;28;20372;-82
2022/10/04 11:56:20;;;;;;;10.77;9.68;;;;;;;;;;5015707;28;20384;-82
2022/10/04 11:58:49;;;;;;;10.13;9.18;;;;;;;;;;5012489;28;20397;-82
2022/10/04 12:01:39;;;;;;;9.75;8.85;;;;;;;;;;5015314;28;20468;-82
2022/10/04 12:04:25;;;;;;;10.33;9.40;;;;;;;;;;5015265;28;20436;-82
2022/10/04 12:07:10;;;;;;;12.52;11.25;;;;;;;;;;5015541;28;20738;-82
2022/10/04 12:09:45;;;;;;;12.52;11.07;;;;;;;;;;5012778;28;20520;-82
2022/10/04 12:12:35;;;;;;;11.77;10.43;;;;;;;;;;5015121;28;20466;-82
2022/10/04 12:15:21;;;;;;;9.45;8.55;;;;;;;;;;5015283;28;20380;-82
2022/10/04 12:17:59;;;;;;;10.02;8.80;;;;;;;;;;5014576;28;20484;-82
2022/10/04 12:20:28;;;;;;;11.77;9.77;;;;;;;;;;5015248;28;20730;-82
2022/10/04 12:22:54;;;;;;;8.70;7.88;;;;;;;;;;5015224;28;20385;-82
2022/10/04 12:25:46;;;;;;;9.18;8.38;;;;;;;;;;5014927;28;20412;-82
2022/10/04 12:28:12;;;;;;;10.70;9.60;;;;;;;;;;4987877;28;20469;-82
2022/10/04 12:31:01;;;;;;;8.95;8.18;;;;;;;;;;5018530;28;20482;-83
2022/10/04 12:33:45;;;;;;;10.02;8.63;;;;;;;;;;5014318;28;20471;-83
2022/10/04 12:36:30;;;;;;;8.55;7.93;;;;;;;;;;5017361;28;20458;-84
2022/10/04 12:38:56;;;;;;;8.70;7.80;;;;;;;;;;5014623;28;20380;-83
2022/10/04 12:41:38;;;;;;;9.95;9.00;;;;;;;;;;5014488;28;20399;-83
2022/10/04 12:44:07;;;;;;;9.52;8.63;;;;;;;;;;5014524;28;20424;-84
2022/10/04 12:46:33;;;;;;;17.63;8.82;;;;;;;;;;5014457;28;20381;-84
2022/10/04 12:49:08;;;;;;;11.13;9.75;;;;;;;;;;5018204;28;20476;-83
2022/10/04 12:51:49;;;;;;;9.45;8.65;;;;;;;;;;5014348;28;20381;-83
2022/10/04 12:54:35;;;;;;;11.30;9.50;;;;;;;;;;5014558;28;20846;-83
2022/10/04 12:57:19;;;;;;;9.95;9.15;;;;;;;;;;4975115;28;20446;-83
2022/10/04 12:59:45;;;;;;;8.85;8.02;;;;;;;;;;5014305;28;20925;-83
2022/10/04 13:02:20;;;;;;;11.15;9.95;;;;;;;;;;5014147;28;20485;-83
2022/10/04 13:04:51;;;;;;;18.70;13.17;;;;;;;;;;5013446;28;21266;-84
2022/10/04 13:07:17;;;;;;;20.45;13.57;;;;;;;;;;5014452;28;20393;-84
2022/10/04 13:09:47;;;;;;;11.65;10.43;;;;;;;;;;5014384;28;20380;-84
2022/10/04 13:12:16;;;;;;;11.67;9.93;;;;;;;;;;5014075;28;20471;-83
2022/10/04 13:14:45;;;;;;;11.20;10.25;;;;;;;;;;5014062;28;20389;-84
2022/10/04 13:17:11;;;;;;;11.52;9.93;;;;;;;;;;5013983;28;20387;-83
2022/10/04 13:19:52;;;;;;;12.50;11.20;;;;;;;;;;5014192;28;20828;-83
2022/10/04 13:22:21;;;;;;;20.27;11.25;;;;;;;;;;5013828;28;20389;-84
2022/10/04 13:24:59;;;;;;;12.93;10.35;;;;;;;;;;5013786;28;20404;-83
2022/10/04 13:27:30;;;;;;;23.55;12.73;;;;;;;;;;5013683;28;20377;-84
2022/10/04 13:30:05;;;;;;;11.73;10.45;;;;;;;;;;5012913;28;20435;-84
2022/10/04 13:32:50;;;;;;;14.10;11.98;;;;;;;;;;5013662;28;20881;-84
2022/10/04 13:35:25;;;;;;;14.60;11.80;;;;;;;;;;5013785;28;20380;-83
2022/10/04 13:38:02;;;;;;;18.10;14.27;;;;;;;;;;5013757;28;20381;-84
2022/10/04 13:40:31;;;;;;;14.65;11.88;;;;;;;;;;5011549;28;20385;-83
2022/10/04 13:42:57;;;;;;;15.60;13.07;;;;;;;;;;5012265;28;20392;-84
2022/10/04 13:45:34;;;;;;;17.25;12.90;;;;;;;;;;5009097;28;20774;-86
2022/10/04 13:48:10;;;;;;;13.35;11.20;;;;;;;;;;5013519;28;20479;-87
2022/10/04 13:50:46;;;;;;;13.50;10.93;;;;;;;;;;4993056;28;20809;-88
2022/10/04 13:56:36;;;;;;;14.27;10.43;;;;;;;;;;5027453;28;20390;-86
2022/10/04 13:59:02;;;;;;;13.13;11.48;;;;;;;;;;5012566;28;20389;-89
2022/10/04 14:01:47;;;;;;;14.95;11.00;;;;;;;;;;5000580;28;20401;-89
2022/10/04 14:04:31;;;;;;;13.63;10.60;;;;;;;;;;5013039;28;20894;-90
2022/10/04 14:07:16;;;;;;;10.98;9.27;;;;;;;;;;5009667;28;20388;-90
2022/10/04 14:09:55;;;;;;;10.90;9.80;;;;;;;;;;4991060;28;20754;-89
2022/10/04 14:12:24;;;;;;;32.23;11.00;;;;;;;;;;5010071;28;20413;-88
2022/10/04 14:15:06;;;;;;;14.65;10.05;;;;;;;;;;5009187;28;20785;-90
2022/10/04 14:17:41;;;;;;;12.65;8.88;;;;;;;;;;5005619;28;20440;-89
2022/10/04 14:20:06;;;;;;;9.88;8.73;;;;;;;;;;5010342;28;20939;-87
2022/10/04 14:22:45;;;;;;;11.05;9.05;;;;;;;;;;5012789;28;20400;-87
2022/10/04 14:25:43;;;;;;;10.30;8.67;;;;;;;;;;5012706;28;20526;-87
2022/10/04 14:28:25;;;;;;;14.50;10.32;;;;;;;;;;4969610;28;20392;-87
2022/10/04 14:31:03;;;;;;;13.40;11.90;;;;;;;;;;5012730;28;20375;-86
2022/10/04 14:33:47;;;;;;;11.60;8.90;;;;;;;;;;5012888;28;20385;-84
2022/10/04 14:36:31;;;;;;;10.20;9.13;;;;;;;;;;5021327;28;20377;-85
2022/10/04 14:39:24;;;;;;;10.13;8.30;;;;;;;;;;5012450;28;20377;-86
2022/10/04 14:41:50;;;;;;;10.60;8.05;;;;;;;;;;5009024;28;20897;-85
2022/10/04 14:44:19;;;;;;;8.32;7.50;;;;;;;;;;5012443;28;20409;-85
2022/10/04 14:46:45;;;;;;;8.85;7.95;;;;;;;;;;5012539;28;20395;-83
2022/10/04 14:49:21;;;;;;;9.18;8.25;;;;;;;;;;5009438;28;20397;-83
2022/10/04 14:52:01;;;;;;;10.27;7.82;;;;;;;;;;5003724;28;20463;-83
2022/10/04 14:54:36;;;;;;;8.30;7.50;;;;;;;;;;5012169;28;20399;-81
2022/10/04 14:57:02;;;;;;;7.70;7.00;;;;;;;;;;5011541;28;20385;-82
2022/10/04 14:59:46;;;;;;;9.27;7.43;;;;;;;;;;4998767;28;20816;-83
2022/10/04 15:02:30;;;;;;;10.35;7.60;;;;;;;;;;5004111;28;20398;-86
2022/10/04 15:05:15;;;;;;;7.78;7.00;;;;;;;;;;5005981;28;20913;-83
2022/10/04 15:07:43;;;;;;;28.90;9.60;;;;;;;;;;5004897;28;20387;-83
2022/10/04 15:10:18;;;;;;;10.40;7.50;;;;;;;;;;5004780;28;20385;-83
2022/10/04 15:12:53;;;;;;;9.00;7.55;;;;;;;;;;4997357;28;20395;-81
2022/10/04 15:15:22;;;;;;;7.90;7.00;;;;;;;;;;4998948;28;20873;-81
2022/10/04 15:17:51;;;;;;;8.15;7.15;;;;;;;;;;5001280;28;20381;-82
2022/10/04 15:20:19;;;;;;;9.40;7.97;;;;;;;;;;5007959;28;20381;-82
2022/10/04 15:22:54;;;;;;;8.77;7.75;;;;;;;;;;5002930;28;20408;-81
2022/10/04 15:25:50;;;;;;;13.10;8.35;;;;;;;;;;4981278;28;20428;-81
2022/10/04 15:28:32;;;;;;;9.48;7.65;;;;;;;;;;4991965;28;20424;-81
2022/10/04 15:31:05;;;;;;;13.38;7.43;;;;;;;;;;5012152;28;20392;-80
2022/10/04 15:33:46;;;;;;;8.90;8.05;;;;;;;;;;5011943;28;20924;-80
2022/10/04 15:36:22;;;;;;;8.93;7.25;;;;;;;;;;5012074;28;20411;-80
2022/10/04 15:38:52;;;;;;;9.00;7.47;;;;;;;;;;5012010;28;20416;-81
2022/10/04 15:41:26;;;;;;;8.50;6.78;;;;;;;;;;5011868;28;20377;-81
2022/10/04 15:43:52;;;;;;;8.88;7.55;;;;;;;;;;5012042;28;20389;-81
2022/10/04 15:46:41;;;;;;;9.43;7.65;;;;;;;;;;5011944;28;20862;-81
2022/10/04 15:49:26;;;;;;;8.47;6.40;;;;;;;;;;5011935;28;20472;-80
2022/10/04 15:51:54;;;;;;;6.97;6.28;;;;;;;;;;5011880;28;20781;-79
2022/10/04 15:54:39;;;;;;;7.65;6.25;;;;;;;;;;5015504;28;20805;-79
2022/10/04 15:57:11;;;;;;;6.57;5.88;;;;;;;;;;5014584;28;20889;-79
2022/10/04 15:59:46;;;;;;;9.60;6.90;;;;;;;;;;5013964;28;20712;-79
2022/10/04 16:02:21;;;;;;;14.57;7.40;;;;;;;;;;5015273;28;20408;-79
2022/10/04 16:04:56;;;;;;;8.52;6.75;;;;;;;;;;5004119;28;20419;-81
2022/10/04 16:07:22;;;;;;;7.25;6.25;;;;;;;;;;5015541;28;20396;-81
2022/10/04 16:09:52;;;;;;;12.50;10.83;;;;;;;;;;5015218;28;20389;-82
2022/10/04 16:12:21;;;;;;;13.87;12.50;;;;;;;;;;5014911;28;20389;-81
2022/10/04 16:14:55;;;;;;;10.38;6.03;;;;;;;;;;5004553;28;20901;-80
2022/10/04 16:17:21;;;;;;;7.25;6.10;;;;;;;;;;5005379;28;20440;-81
2022/10/04 16:19:54;;;;;;;8.10;5.65;;;;;;;;;;4999448;28;20392;-81
2022/10/04 16:22:28;;;;;;;8.15;7.35;;;;;;;;;;5002131;28;20510;-81
2022/10/04 16:24:56;;;;;;;7.30;5.80;;;;;;;;;;5014709;28;20384;-81
2022/10/04 16:27:22;;;;;;;9.23;5.50;;;;;;;;;;5015297;28;20826;-84
2022/10/04 16:29:51;;;;;;;5.97;5.05;;;;;;;;;;5014897;28;20901;-84
2022/10/04 16:32:26;;;;;;;4.97;4.45;;;;;;;;;;5016820;28;20423;-84
2022/10/04 16:34:52;;;;;;;5.03;4.50;;;;;;;;;;5014468;28;20774;-84
2022/10/04 16:37:24;;;;;;;4.53;4.13;;;;;;;;;;5015094;28;20385;-84
2022/10/04 16:39:59;;;;;;;6.30;5.10;;;;;;;;;;5007936;28;20390;-84
2022/10/04 16:42:45;;;;;;;4.85;4.35;;;;;;;;;;5009484;28;20416;-83
2022/10/04 16:45:11;;;;;;;5.70;4.43;;;;;;;;;;5004310;28;20428;-83
2022/10/04 16:47:52;;;;;;;6.25;4.70;;;;;;;;;;5014135;28;20427;-83
2022/10/04 16:50:36;;;;;;;5.38;4.80;;;;;;;;;;5013763;28;20389;-84
2022/10/04 16:53:21;;;;;;;5.35;4.40;;;;;;;;;;4999788;28;20411;-83
2022/10/04 16:55:56;;;;;;;4.70;4.30;;;;;;;;;;4994932;28;20394;-83
2022/10/04 16:58:32;;;;;;;5.13;4.67;;;;;;;;;;4999143;28;20895;-84
2022/10/04 17:01:17;;;;;;;5.70;4.80;;;;;;;;;;4993763;28;20876;-83
2022/10/04 17:03:51;;;;;;;4.97;4.35;;;;;;;;;;4981924;28;20533;-83
2022/10/04 17:06:25;;;;;;;7.32;4.82;;;;;;;;;;4998040;28;20472;-83
2022/10/04 17:09:07;;;;;;;6.63;4.85;;;;;;;;;;4995087;28;20429;-83
2022/10/04 17:11:59;;;;;;;6.05;4.70;;;;;;;;;;4999660;28;20439;-82
2022/10/04 17:14:31;;;;;;;5.05;4.65;;;;;;;;;;4993373;28;20446;-82
2022/10/04 17:17:00;;;;;;;5.05;4.55;;;;;;;;;;4995511;28;20477;-82
2022/10/04 17:19:43;;;;;;;6.63;4.65;;;;;;;;;;4994892;28;20398;-82
2022/10/04 17:22:21;;;;;;;5.78;4.60;;;;;;;;;;5011304;28;20377;-81
2022/10/04 17:24:56;;;;;;;6.50;5.00;;;;;;;;;;4997697;28;20389;-82
2022/10/04 17:27:22;;;;;;;4.85;4.20;;;;;;;;;;4994996;28;20394;-82
2022/10/04 17:29:57;;;;;;;7.05;4.57;;;;;;;;;;4995508;28;20397;-83
2022/10/04 17:32:34;;;;;;;5.67;4.50;;;;;;;;;;4994848;28;20444;-82
2022/10/04 17:35:05;;;;;;;7.20;4.88;;;;;;;;;;4994609;28;20509;-83
2022/10/04 17:37:50;;;;;;;6.90;4.40;;;;;;;;;;4996507;28;20891;-82
2022/10/04 17:40:18;;;;;;;6.47;4.50;;;;;;;;;;5003836;28;20381;-82
2022/10/04 17:42:47;;;;;;;5.18;4.70;;;;;;;;;;5012149;28;20413;-82
2022/10/04 17:45:16;;;;;;;9.38;5.45;;;;;;;;;;5013375;28;20385;-82
2022/10/04 17:56:30;;;;;;;5.63;5.10;;;;;;;;;;5013632;28;20727;-82
2022/10/04 17:58:58;;;;;;;5.50;5.00;;;;;;;;;;5013299;28;20998;-82
2022/10/04 18:01:24;;;;;;;8.48;5.40;;;;;;;;;;5013029;28;20471;-82
2022/10/04 18:03:58;;;;;;;7.00;6.30;;;;;;;;;;5010065;28;20435;-82
2022/10/04 18:06:24;;;;;;;6.38;5.88;;;;;;;;;;5013226;28;20389;-82
2022/10/04 18:08:54;;;;;;;6.68;6.07;;;;;;;;;;5013156;28;20381;-82
2022/10/04 18:11:28;;;;;;;5.93;5.43;;;;;;;;;;5009774;28;20391;-82
2022/10/04 18:14:00;;;;;;;5.55;5.05;;;;;;;;;;5013341;28;20419;-82
2022/10/04 18:16:28;;;;;;;5.63;5.13;;;;;;;;;;5012577;28;20444;-82
2022/10/04 18:18:55;;;;;;;5.13;4.63;;;;;;;;;;5013010;28;20905;-82
2022/10/04 18:21:25;;;;;;;5.13;4.60;;;;;;;;;;4995250;28;20945;-82
2022/10/04 18:23:52;;;;;;;7.03;4.70;;;;;;;;;;5015333;28;20383;-82
2022/10/04 18:26:19;;;;;;;5.65;4.75;;;;;;;;;;5012895;28;20388;-82
2022/10/04 18:28:46;;;;;;;6.53;5.57;;;;;;;;;;5012786;28;20475;-82
2022/10/04 18:31:26;;;;;;;6.43;5.05;;;;;;;;;;5012694;28;20393;-82
2022/10/04 18:33:52;;;;;;;4.68;4.15;;;;;;;;;;5012633;28;20491;-82
2022/10/04 18:36:26;;;;;;;8.00;4.63;;;;;;;;;;5012717;28;20384;-82
2022/10/04 18:39:03;;;;;;;5.15;4.65;;;;;;;;;;5012611;28;20464;-82
2022/10/04 18:44:43;;;;;;;5.28;4.75;;;;;;;;;;5012872;28;20387;-82
2022/10/04 18:47:15;;;;;;;4.95;4.45;;;;;;;;;;5010150;28;20392;-82
2022/10/04 18:49:47;;;;;;;7.28;5.00;;;;;;;;;;5012495;28;20447;-82
2022/10/04 18:52:13;;;;;;;6.60;5.30;;;;;;;;;;5012456;28;20389;-82
2022/10/04 18:54:57;;;;;;;7.63;5.72;;;;;;;;;;5012401;28;20916;-82
2022/10/04 19:01:58;;;;;;;5.80;5.30;;;;;;;;;;5012434;28;20387;-82
2022/10/04 19:03:23;;;;;;;7.78;6.40;;;;;;;;;;5012344;28;20404;-82
2022/10/04 19:06:03;;;;;;;7.53;6.88;;;;;;;;;;5012646;28;20443;-82
2022/10/04 19:08:32;;;;;;;7.60;7.00;;;;;;;;;;4994691;28;20393;-82
2022/10/04 19:11:07;;;;;;;8.70;6.05;;;;;;;;;;5012195;28;20388;-81
2022/10/04 19:13:36;;;;;;;15.93;5.78;;;;;;;;;;5012173;28;20882;-82
2022/10/04 19:16:11;;;;;;;9.52;5.55;;;;;;;;;;5012277;28;20439;-82
2022/10/04 19:18:57;;;;;;;9.70;4.93;;;;;;;;;;5012009;28;20387;-82
2022/10/04 19:21:30;;;;;;;8.02;5.93;;;;;;;;;;5012082;28;20389;-82
2022/10/04 19:24:12;;;;;;;9.32;5.50;;;;;;;;;;5012066;28;20821;-82
2022/10/04 19:26:44;;;;;;;6.00;5.22;;;;;;;;;;5010645;28;20936;-82
2022/10/04 19:29:21;;;;;;;6.78;5.35;;;;;;;;;;4996632;28;20465;-82
2022/10/04 19:31:54;;;;;;;6.15;5.65;;;;;;;;;;5002890;28;20430;-81
2022/10/04 19:34:29;;;;;;;8.48;5.90;;;;;;;;;;5006153;28;20406;-82
2022/10/04 19:36:59;;;;;;;10.05;5.97;;;;;;;;;;4997520;28;20382;-82
2022/10/04 19:39:34;;;;;;;7.85;5.85;;;;;;;;;;5002410;28;20447;-82
2022/10/04 19:42:12;;;;;;;11.48;5.97;;;;;;;;;;5009018;28;20406;-79
2022/10/04 19:44:44;;;;;;;7.18;6.32;;;;;;;;;;5010438;28;20423;-79
2022/10/04 19:47:27;;;;;;;7.97;7.05;;;;;;;;;;5005794;28;20446;-79